createdAt,value
2023-01-13T00:01:56.343Z,31.67
2023-01-13T00:04:26.682Z,32.33
2023-01-13T00:06:57.100Z,25.53
2023-01-13T00:09:27.513Z,26.83
2023-01-13T00:11:58.254Z,26.37
2023-01-13T00:14:30.651Z,25.13
2023-01-13T00:17:02.283Z,19.33
2023-01-13T00:19:32.521Z,18.37
2023-01-13T00:22:02.713Z,21.23
2023-01-13T00:24:32.742Z,18.23
2023-01-13T00:27:02.958Z,18.87
2023-01-13T00:29:33.084Z,17.20
2023-01-13T00:32:04.938Z,16.47
2023-01-13T00:34:35.567Z,17.67
2023-01-13T00:37:05.784Z,18.40
2023-01-13T00:39:35.823Z,18.80
2023-01-13T00:42:23.121Z,19.90
2023-01-13T00:44:53.258Z,20.87
2023-01-13T00:47:25.196Z,20.13
2023-01-13T00:49:55.633Z,20.03
2023-01-13T00:52:25.858Z,21.07
2023-01-13T00:54:56.384Z,20.27
2023-01-13T00:57:26.608Z,19.63
2023-01-13T00:59:56.829Z,17.30
2023-01-13T01:02:32.242Z,16.23
2023-01-13T01:05:02.599Z,16.80
2023-01-13T01:07:33.014Z,19.00
2023-01-13T01:10:03.545Z,18.57
2023-01-13T01:12:33.461Z,15.97
2023-01-13T01:15:03.895Z,15.37
2023-01-13T01:17:35.954Z,14.67
2023-01-13T01:20:07.402Z,15.53
2023-01-13T01:22:37.627Z,15.10
2023-01-13T01:25:08.874Z,14.03
2023-01-13T01:27:39.093Z,16.17
2023-01-13T01:30:10.762Z,16.97
2023-01-13T01:32:42.713Z,17.23
2023-01-13T01:35:13.250Z,15.07
2023-01-13T01:37:43.364Z,14.83
2023-01-13T01:40:14.595Z,14.03
2023-01-13T01:43:01.839Z,13.93
2023-01-13T01:45:33.375Z,16.23
2023-01-13T01:48:07.895Z,13.77
2023-01-13T01:50:39.045Z,13.73
2023-01-13T01:53:15.309Z,14.73
2023-01-13T01:55:45.733Z,14.00
2023-01-13T01:58:21.595Z,13.00
2023-01-13T02:00:52.186Z,13.23
2023-01-13T02:03:24.682Z,14.17
2023-01-13T02:05:55.136Z,14.10
2023-01-13T02:08:25.536Z,12.80
2023-01-13T02:10:56.989Z,12.90
2023-01-13T02:13:26.797Z,13.10
2023-01-13T02:16:05.141Z,12.77
2023-01-13T02:18:50.539Z,12.53
2023-01-13T02:21:49.791Z,13.30
2023-01-13T02:24:54.886Z,13.40
2023-01-13T02:28:08.888Z,13.20
2023-01-13T02:31:08.805Z,11.57
2023-01-13T02:34:01.056Z,12.93
2023-01-13T02:36:41.136Z,12.40
2023-01-13T02:39:18.576Z,11.60
2023-01-13T02:42:09.600Z,12.43
2023-01-13T02:44:46.475Z,12.13
2023-01-13T02:47:21.815Z,12.97
2023-01-13T02:49:55.003Z,14.87
2023-01-13T02:52:32.086Z,14.57
2023-01-13T02:55:08.551Z,14.70
2023-01-13T02:57:40.515Z,14.13
2023-01-13T03:00:14.426Z,12.93
2023-01-13T03:02:47.230Z,12.40
2023-01-13T03:05:18.459Z,12.10
2023-01-13T03:08:18.461Z,12.67
2023-01-13T03:11:05.929Z,12.33
2023-01-13T03:14:04.290Z,12.40
2023-01-13T03:16:48.050Z,12.30
2023-01-13T03:19:39.128Z,12.60
2023-01-13T03:22:20.507Z,12.63
2023-01-13T03:24:54.922Z,12.13
2023-01-13T03:27:28.840Z,13.00
2023-01-13T03:30:02.737Z,12.17
2023-01-13T03:32:37.054Z,12.40
2023-01-13T03:35:14.857Z,12.53
2023-01-13T03:37:49.276Z,12.27
2023-01-13T03:40:24.731Z,12.20
2023-01-13T03:43:20.546Z,12.20
2023-01-13T03:45:57.580Z,12.23
2023-01-13T03:48:30.503Z,13.60
2023-01-13T03:51:09.536Z,13.10
2023-01-13T03:53:43.936Z,12.47
2023-01-13T03:56:20.110Z,12.20
2023-01-13T03:58:55.031Z,12.53
2023-01-13T04:01:28.553Z,12.10
2023-01-13T04:04:05.396Z,12.93
2023-01-13T04:06:44.256Z,13.00
2023-01-13T04:09:22.349Z,12.77
2023-01-13T04:11:58.019Z,12.43
2023-01-13T04:14:29.768Z,12.40
2023-01-13T04:17:00.284Z,12.17
2023-01-13T04:19:30.403Z,13.30
2023-01-13T04:22:02.464Z,12.60
2023-01-13T04:24:32.494Z,12.20
2023-01-13T04:27:02.604Z,12.40
2023-01-13T04:29:32.733Z,11.10
2023-01-13T04:32:03.255Z,11.77
2023-01-13T04:34:33.467Z,11.77
2023-01-13T04:37:05.327Z,11.93
2023-01-13T04:39:35.685Z,11.30
2023-01-13T04:42:06.282Z,10.87
2023-01-13T04:44:37.165Z,10.47
2023-01-13T04:47:07.862Z,10.20
2023-01-13T04:49:38.076Z,10.00
2023-01-13T04:52:10.344Z,9.87
2023-01-13T04:54:40.382Z,10.23
2023-01-13T04:57:10.896Z,10.20
2023-01-13T04:59:42.543Z,9.70
2023-01-13T05:02:20.283Z,9.47
2023-01-13T05:04:51.526Z,9.03
2023-01-13T05:07:23.159Z,9.53
2023-01-13T05:09:53.191Z,9.00
2023-01-13T05:12:39.988Z,9.43
2023-01-13T05:15:29.032Z,9.80
2023-01-13T05:17:58.994Z,9.37
2023-01-13T05:20:29.507Z,9.60
2023-01-13T05:23:18.755Z,9.13
2023-01-13T05:25:50.927Z,9.70
2023-01-13T05:28:21.180Z,9.80
2023-01-13T05:30:53.931Z,10.37
2023-01-13T05:33:23.944Z,9.77
2023-01-13T05:35:54.168Z,10.03
2023-01-13T05:38:26.016Z,9.10
2023-01-13T05:41:28.094Z,9.67
2023-01-13T05:43:58.410Z,10.17
2023-01-13T05:46:28.567Z,8.83
2023-01-13T05:49:01.464Z,9.30
2023-01-13T05:51:31.536Z,9.97
2023-01-13T05:54:05.479Z,10.10
2023-01-13T05:56:35.652Z,10.40
2023-01-13T05:59:05.788Z,10.67
2023-01-13T06:01:37.533Z,10.67
2023-01-13T06:04:08.388Z,10.57
2023-01-13T06:06:38.591Z,10.27
2023-01-13T06:09:11.183Z,10.10
2023-01-13T06:11:41.291Z,10.53
2023-01-13T06:14:12.420Z,12.47
2023-01-13T06:16:43.582Z,14.53
2023-01-13T06:19:15.245Z,16.23
2023-01-13T06:21:46.159Z,14.83
2023-01-13T06:24:18.231Z,15.27
2023-01-13T06:26:48.753Z,15.30
2023-01-13T06:29:19.705Z,14.77
2023-01-13T06:31:50.053Z,13.33
2023-01-13T06:34:20.543Z,14.70
2023-01-13T06:36:56.506Z,14.93
2023-01-13T06:39:31.664Z,14.97
2023-01-13T06:42:19.574Z,13.90
2023-01-13T06:44:49.623Z,14.57
2023-01-13T06:47:22.890Z,14.30
2023-01-13T06:49:53.940Z,13.57
2023-01-13T06:52:25.077Z,13.00
2023-01-13T06:54:56.841Z,13.50
2023-01-13T06:57:27.475Z,13.93
2023-01-13T06:59:57.807Z,15.23
2023-01-13T07:02:28.920Z,15.10
2023-01-13T07:04:59.872Z,14.53
2023-01-13T07:07:30.409Z,16.33
2023-01-13T07:10:02.592Z,16.47
2023-01-13T07:12:53.295Z,14.83
2023-01-13T07:15:22.580Z,13.03
2023-01-13T07:17:52.373Z,12.33
2023-01-13T07:20:22.899Z,12.57
2023-01-13T07:22:57.018Z,12.63
2023-01-13T07:25:28.972Z,15.07
2023-01-13T07:28:00.632Z,22.40
2023-01-13T07:30:30.771Z,18.07
2023-01-13T07:33:01.383Z,17.83
2023-01-13T07:35:31.908Z,21.20
2023-01-13T07:38:02.035Z,20.70
2023-01-13T07:40:33.729Z,19.33
2023-01-13T07:43:21.621Z,18.30
2023-01-13T07:45:51.700Z,16.30
2023-01-13T07:48:21.661Z,15.50
2023-01-13T07:50:51.984Z,15.27
2023-01-13T07:53:25.172Z,15.83
2023-01-13T07:56:00.209Z,16.47
2023-01-13T07:58:31.133Z,20.43
2023-01-13T08:01:01.448Z,23.90
2023-01-13T08:03:31.682Z,28.47
2023-01-13T08:06:03.756Z,24.97
2023-01-13T08:08:33.876Z,21.17
2023-01-13T08:11:07.773Z,27.03
2023-01-13T08:13:38.622Z,30.73
2023-01-13T08:16:11.098Z,29.97
2023-01-13T08:18:42.018Z,28.10
2023-01-13T08:21:14.307Z,28.93
2023-01-13T08:23:48.435Z,31.93
2023-01-13T08:26:21.896Z,29.07
2023-01-13T08:28:52.128Z,27.27
2023-01-13T08:31:22.628Z,27.97
2023-01-13T08:33:54.202Z,28.33
2023-01-13T08:36:29.366Z,26.23
2023-01-13T08:39:00.474Z,22.57
2023-01-13T08:41:49.363Z,20.07
2023-01-13T08:44:19.561Z,19.83
2023-01-13T08:46:49.685Z,20.50
2023-01-13T08:49:20.607Z,21.27
2023-01-13T08:51:51.862Z,19.87
2023-01-13T08:54:22.617Z,22.17
2023-01-13T08:56:56.910Z,20.60
2023-01-13T08:59:29.499Z,21.07
2023-01-13T09:02:00.229Z,20.53
2023-01-13T09:04:31.426Z,24.87
2023-01-13T09:07:03.647Z,24.67
2023-01-13T09:09:34.904Z,23.40
2023-01-13T09:12:25.285Z,24.83
2023-01-13T09:14:55.919Z,24.40
2023-01-13T09:17:26.144Z,31.47
2023-01-13T09:19:56.779Z,29.90
2023-01-13T09:22:27.903Z,29.13
2023-01-13T09:24:58.447Z,30.90
2023-01-13T09:27:32.048Z,33.80
2023-01-13T09:30:04.925Z,34.33
2023-01-13T09:32:35.444Z,32.53
2023-01-13T09:35:05.270Z,31.47
2023-01-13T09:37:37.038Z,30.63
2023-01-13T09:40:13.497Z,30.33
2023-01-13T09:43:08.281Z,29.03
2023-01-13T09:45:44.852Z,27.27
2023-01-13T09:48:18.991Z,18.90
2023-01-13T09:50:59.161Z,21.03
2023-01-13T09:53:35.093Z,24.33
2023-01-13T09:56:09.499Z,21.50
2023-01-13T09:58:41.675Z,19.03
2023-01-13T10:01:22.187Z,18.20
2023-01-13T10:03:52.904Z,20.47
2023-01-13T10:06:33.730Z,20.97
2023-01-13T10:09:07.240Z,23.60
2023-01-13T10:11:59.878Z,24.20
2023-01-13T10:14:40.235Z,19.53
2023-01-13T10:17:21.218Z,15.57
2023-01-13T10:20:01.158Z,15.60
2023-01-13T10:22:47.877Z,16.90
2023-01-13T10:25:33.760Z,17.57
2023-01-13T10:28:11.049Z,14.43
2023-01-13T10:30:46.488Z,13.60
2023-01-13T10:33:19.362Z,14.03
2023-01-13T10:35:58.701Z,14.77
2023-01-13T10:38:31.497Z,15.77
2023-01-13T10:41:04.265Z,15.03
2023-01-13T10:43:34.695Z,14.33
2023-01-13T10:46:09.070Z,13.90
2023-01-13T10:48:44.162Z,14.00
2023-01-13T10:51:27.371Z,14.37
2023-01-13T10:54:06.513Z,14.77
2023-01-13T10:56:37.758Z,14.20
2023-01-13T10:59:20.158Z,14.03
2023-01-13T11:02:03.947Z,13.93
2023-01-13T11:04:40.054Z,13.83
2023-01-13T11:07:26.831Z,15.37
2023-01-13T11:10:09.174Z,14.93
2023-01-13T11:12:48.610Z,15.40
2023-01-13T11:15:22.730Z,15.17
2023-01-13T11:18:01.247Z,17.70
2023-01-13T11:20:37.533Z,16.73
2023-01-13T11:23:16.079Z,17.13
2023-01-13T11:25:52.639Z,16.57
2023-01-13T11:28:41.284Z,18.23
2023-01-13T11:31:20.237Z,16.40
2023-01-13T11:33:58.175Z,16.10
2023-01-13T11:36:34.838Z,16.17
2023-01-13T11:39:14.894Z,15.07
2023-01-13T11:42:09.478Z,13.77
2023-01-13T11:44:44.426Z,15.27
2023-01-13T11:47:16.698Z,14.80
2023-01-13T11:49:49.153Z,14.63
2023-01-13T11:52:24.195Z,14.47
2023-01-13T11:55:08.256Z,13.47
2023-01-13T11:58:07.749Z,12.97
2023-01-13T12:00:55.087Z,14.37
2023-01-13T12:03:33.689Z,14.40
2023-01-13T12:06:22.966Z,13.13
2023-01-13T12:09:12.335Z,13.77
2023-01-13T12:12:12.349Z,12.67
2023-01-13T12:14:54.763Z,13.73
2023-01-13T12:17:35.005Z,13.17
2023-01-13T12:20:23.256Z,11.87
2023-01-13T12:22:58.824Z,10.37
2023-01-13T12:25:37.628Z,10.17
2023-01-13T12:28:14.192Z,9.87
2023-01-13T12:30:48.651Z,9.77
2023-01-13T12:33:27.329Z,9.23
2023-01-13T12:36:04.626Z,8.67
2023-01-13T12:38:39.565Z,8.70
2023-01-13T12:41:19.471Z,9.60
2023-01-13T12:44:08.765Z,8.70
2023-01-13T12:46:54.657Z,9.30
2023-01-13T12:49:31.236Z,8.57
2023-01-13T12:52:17.114Z,8.33
2023-01-13T12:55:21.956Z,9.17
2023-01-13T12:58:04.665Z,8.87
2023-01-13T13:00:38.957Z,8.93
2023-01-13T13:03:32.974Z,11.20
2023-01-13T13:06:19.785Z,10.17
2023-01-13T13:09:20.099Z,8.67
2023-01-13T13:12:09.166Z,9.40
2023-01-13T13:15:07.759Z,10.13
2023-01-13T13:18:09.541Z,8.80
2023-01-13T13:20:56.342Z,9.73
2023-01-13T13:23:44.694Z,9.47
2023-01-13T13:26:43.056Z,10.33
2023-01-13T13:29:32.835Z,10.03
2023-01-13T13:32:47.048Z,10.63
2023-01-13T13:35:37.052Z,11.67
2023-01-13T13:38:40.250Z,13.50
2023-01-13T13:41:35.513Z,11.47
2023-01-13T13:44:32.624Z,12.90
2023-01-13T13:47:06.839Z,13.70
2023-01-13T13:49:44.636Z,12.83
2023-01-13T13:52:26.292Z,12.57
2023-01-13T13:55:00.222Z,13.70
2023-01-13T13:57:35.932Z,12.27
2023-01-13T14:00:20.045Z,11.57
2023-01-13T14:03:01.049Z,13.57
2023-01-13T14:05:32.683Z,14.10
2023-01-13T14:08:05.608Z,25.43
2023-01-13T14:10:37.220Z,14.77
2023-01-13T14:13:18.248Z,42.67
2023-01-13T14:15:50.994Z,21.47
2023-01-13T14:18:25.639Z,15.20
2023-01-13T14:20:57.799Z,11.30
2023-01-13T14:23:31.711Z,46.93
2023-01-13T14:26:05.684Z,20.57
2023-01-13T14:28:39.608Z,11.47
2023-01-13T14:31:11.523Z,11.17
2023-01-13T14:33:46.598Z,10.37
2023-01-13T14:36:19.894Z,9.70
2023-01-13T14:38:52.156Z,9.50
2023-01-13T14:41:28.453Z,9.27
2023-01-13T14:44:02.331Z,9.47
2023-01-13T14:46:42.793Z,9.67
2023-01-13T14:49:25.903Z,9.50
2023-01-13T14:51:56.847Z,9.23
2023-01-13T14:54:47.452Z,9.73
2023-01-13T14:57:28.537Z,9.97
2023-01-13T15:00:04.489Z,11.17
2023-01-13T15:02:47.066Z,12.03
2023-01-13T15:05:48.261Z,15.37
2023-01-13T15:08:41.800Z,12.27
2023-01-13T15:11:26.878Z,10.60
2023-01-13T15:14:03.338Z,11.03
2023-01-13T15:16:35.016Z,10.67
2023-01-13T15:19:05.428Z,11.97
2023-01-13T15:21:37.276Z,11.80
2023-01-13T15:24:11.083Z,11.73
2023-01-13T15:26:41.618Z,13.43
2023-01-13T15:29:16.131Z,14.43
2023-01-13T15:31:46.356Z,23.13
2023-01-13T15:34:18.936Z,26.03
2023-01-13T15:36:51.516Z,19.90
2023-01-13T15:39:23.228Z,24.30
2023-01-13T15:42:10.075Z,26.33
2023-01-13T15:44:58.016Z,20.27
2023-01-13T15:47:29.868Z,21.00
2023-01-13T15:50:00.720Z,19.40
2023-01-13T15:52:35.438Z,15.57
2023-01-13T15:55:06.061Z,16.57
2023-01-13T15:57:39.666Z,17.03
2023-01-13T16:00:17.069Z,24.53
2023-01-13T16:02:49.027Z,20.73
2023-01-13T16:05:19.635Z,18.90
2023-01-13T16:07:51.417Z,18.97
2023-01-13T16:10:26.960Z,18.57
2023-01-13T16:12:58.106Z,18.47
2023-01-13T16:15:28.225Z,20.90
2023-01-13T16:18:00.817Z,22.10
2023-01-13T16:20:32.695Z,29.97
2023-01-13T16:23:05.146Z,33.10
2023-01-13T16:25:35.999Z,21.77
2023-01-13T16:28:07.201Z,23.60
2023-01-13T16:30:39.319Z,24.53
2023-01-13T16:33:09.856Z,27.17
2023-01-13T16:35:43.975Z,30.13
2023-01-13T16:38:33.546Z,34.70
2023-01-13T16:41:04.175Z,29.50
2023-01-13T16:43:35.039Z,29.97
2023-01-13T16:46:19.901Z,29.87
2023-01-13T16:48:53.604Z,29.73
2023-01-13T16:51:25.559Z,29.23
2023-01-13T16:53:58.545Z,29.03
2023-01-13T16:56:31.129Z,46.97
2023-01-13T16:59:06.582Z,47.17
2023-01-13T17:01:39.012Z,45.20
2023-01-13T17:04:14.603Z,43.60
2023-01-13T17:06:49.255Z,40.70
2023-01-13T17:09:25.791Z,29.07
2023-01-13T17:11:56.741Z,30.60
2023-01-13T17:14:27.976Z,34.30
2023-01-13T17:16:59.538Z,39.17
2023-01-13T17:19:32.108Z,38.47
2023-01-13T17:22:02.313Z,38.00
2023-01-13T17:24:35.616Z,34.53
2023-01-13T17:27:07.174Z,29.77
2023-01-13T17:29:38.007Z,33.23
2023-01-13T17:32:09.050Z,35.67
2023-01-13T17:34:41.007Z,31.33
2023-01-13T17:37:14.526Z,33.17
2023-01-13T17:39:48.872Z,36.47
2023-01-13T17:42:19.676Z,41.03
2023-01-13T17:44:51.339Z,43.90
2023-01-13T17:47:23.489Z,42.17
2023-01-13T17:49:53.860Z,38.60
2023-01-13T17:52:24.956Z,33.20
2023-01-13T17:54:58.046Z,46.43
2023-01-13T17:57:29.592Z,44.87
2023-01-13T18:00:00.157Z,50.00
2023-01-13T18:02:30.761Z,48.57
2023-01-13T18:05:01.385Z,43.60
2023-01-13T18:07:32.023Z,40.03
2023-01-13T18:10:04.097Z,38.20
2023-01-13T18:12:35.350Z,36.33
2023-01-13T18:15:05.943Z,40.17
2023-01-13T18:17:36.164Z,38.87
2023-01-13T18:20:24.044Z,42.60
2023-01-13T18:23:10.814Z,64.17
2023-01-13T18:26:01.004Z,42.27
2023-01-13T18:28:31.117Z,40.17
2023-01-13T18:31:01.147Z,40.40
2023-01-13T18:33:31.360Z,42.73
2023-01-13T18:36:01.587Z,39.73
2023-01-13T18:38:32.009Z,39.30
2023-01-13T18:41:26.618Z,36.83
2023-01-13T18:43:55.704Z,48.80
2023-01-13T18:46:25.709Z,48.70
2023-01-13T18:48:58.486Z,41.57
2023-01-13T18:51:28.441Z,36.73
2023-01-13T18:53:59.156Z,36.87
2023-01-13T18:56:31.621Z,33.87
2023-01-13T18:59:03.686Z,33.70
2023-01-13T19:01:34.668Z,40.23
2023-01-13T19:04:10.878Z,46.43
2023-01-13T19:06:51.039Z,42.53
2023-01-13T19:09:25.263Z,39.37
2023-01-13T19:11:58.429Z,36.97
2023-01-13T19:14:38.386Z,36.43
2023-01-13T19:17:11.277Z,39.87
2023-01-13T19:19:42.938Z,47.70
2023-01-13T19:22:14.589Z,36.30
2023-01-13T19:24:44.907Z,37.30
2023-01-13T19:27:18.623Z,36.93
2023-01-13T19:29:52.510Z,39.27
2023-01-13T19:32:25.101Z,47.17
2023-01-13T19:34:55.723Z,48.37
2023-01-13T19:37:30.604Z,38.83
2023-01-13T19:40:01.609Z,39.07
2023-01-13T19:42:50.870Z,40.77
2023-01-13T19:45:32.566Z,35.77
2023-01-13T19:48:05.931Z,34.13
2023-01-13T19:50:42.116Z,32.33
2023-01-13T19:53:19.089Z,34.93
2023-01-13T19:55:50.346Z,37.07
2023-01-13T19:58:24.662Z,33.27
2023-01-13T20:00:56.251Z,30.93
2023-01-13T20:03:31.956Z,34.03
2023-01-13T20:06:09.463Z,33.57
2023-01-13T20:08:40.611Z,33.30
2023-01-13T20:11:31.606Z,28.43
2023-01-13T20:14:06.854Z,26.93
2023-01-13T20:16:37.683Z,26.77
2023-01-13T20:19:09.025Z,25.50
2023-01-13T20:21:40.483Z,26.63
2023-01-13T20:24:17.557Z,24.77
2023-01-13T20:26:49.005Z,27.87
2023-01-13T20:29:21.803Z,28.73
2023-01-13T20:31:54.374Z,28.70
2023-01-13T20:34:25.407Z,26.13
2023-01-13T20:36:56.554Z,21.53
2023-01-13T20:39:28.656Z,19.47
2023-01-13T20:42:16.861Z,21.93
2023-01-13T20:44:53.122Z,18.37
2023-01-13T20:47:24.577Z,15.73
2023-01-13T20:49:55.509Z,15.40
2023-01-13T20:52:26.445Z,21.07
2023-01-13T20:54:58.113Z,27.40
2023-01-13T20:57:28.941Z,22.77
2023-01-13T21:00:02.868Z,17.70
2023-01-13T21:02:33.792Z,12.93
2023-01-13T21:05:05.337Z,11.50
2023-01-13T21:07:35.770Z,11.97
2023-01-13T21:10:07.527Z,13.70
2023-01-13T21:12:55.263Z,16.47
2023-01-13T21:15:28.547Z,19.77
2023-01-13T21:18:17.209Z,15.53
2023-01-13T21:20:48.136Z,13.00
2023-01-13T21:23:20.917Z,14.23
2023-01-13T21:25:51.665Z,17.13
2023-01-13T21:28:22.392Z,15.30
2023-01-13T21:30:55.068Z,13.40
2023-01-13T21:33:25.908Z,12.50
2023-01-13T21:35:56.532Z,12.50
2023-01-13T21:38:29.434Z,11.53
2023-01-13T21:41:06.408Z,11.80
2023-01-13T21:43:57.111Z,12.60
2023-01-13T21:46:45.958Z,12.63
2023-01-13T21:49:16.299Z,13.00
2023-01-13T21:51:46.718Z,12.77
2023-01-13T21:54:16.935Z,13.67
2023-01-13T21:56:46.944Z,14.27
2023-01-13T21:59:17.780Z,14.50
2023-01-13T22:02:24.011Z,14.97
2023-01-13T22:04:40.037Z,16.90
2023-01-13T22:07:11.286Z,26.73
2023-01-13T22:09:41.602Z,37.40
2023-01-13T22:12:11.754Z,80.00
2023-01-13T22:14:42.356Z,52.27
2023-01-13T22:17:16.990Z,22.63
2023-01-13T22:19:48.236Z,17.70
2023-01-13T22:22:19.474Z,18.23
2023-01-13T22:24:51.022Z,16.20
2023-01-13T22:27:23.200Z,13.37
2023-01-13T22:29:54.954Z,11.70
2023-01-13T22:32:27.027Z,11.87
2023-01-13T22:34:58.500Z,12.07
2023-01-13T22:37:29.210Z,10.53
2023-01-13T22:40:01.309Z,10.33
2023-01-13T22:42:31.588Z,10.27
2023-01-13T22:45:04.292Z,11.43
2023-01-13T22:47:36.539Z,10.40
2023-01-13T22:50:09.294Z,10.43
2023-01-13T22:52:39.785Z,9.60
2023-01-13T22:55:10.585Z,10.10
2023-01-13T22:57:47.718Z,9.93
2023-01-13T23:00:20.235Z,14.20
2023-01-13T23:02:52.504Z,12.93
2023-01-13T23:05:23.134Z,11.33
2023-01-13T23:07:56.434Z,10.10
2023-01-13T23:10:26.656Z,10.53
2023-01-13T23:12:56.845Z,9.30
2023-01-13T23:15:27.908Z,9.80
2023-01-13T23:17:59.975Z,9.50
2023-01-13T23:20:31.014Z,9.43
2023-01-13T23:23:01.139Z,9.47
2023-01-13T23:25:34.358Z,9.33
2023-01-13T23:28:04.756Z,8.87
2023-01-13T23:30:35.089Z,8.83
2023-01-13T23:33:07.059Z,8.30
2023-01-13T23:35:37.675Z,10.30
2023-01-13T23:38:08.106Z,8.70
2023-01-13T23:40:39.034Z,9.37
2023-01-13T23:43:09.459Z,8.87
2023-01-13T23:45:39.784Z,9.00
2023-01-13T23:48:11.745Z,10.87
2023-01-13T23:50:42.277Z,8.87
2023-01-13T23:53:13.026Z,9.70
2023-01-13T23:55:43.275Z,12.20
2023-01-13T23:58:13.455Z,16.80
